Airfield :
LOGIN :

Register | Disclaimer

   EN    FR    IT 

 










Legend :    VFR   Marginal VFR   IFR   Intensive IFR   Very Intensive IFR
Visi :
Ceiling :
>= 8 km
>= 3000ft
5 to 8 km
1000 to 3000 ft
1500m to 5 km
500 to 1000 ft
800 to 1500m
200 to 500 ft
< 800m
< 200 ft
Symbols :   Thunderstorms  Fog  Heavy snow  Heavy precipitations  Wind > 20 kt
SIGMETs :     Misc.  Thunderstorms  Icing  Turbulence  Mountain Waves  Volcanic Ashes







- Airport Elevation : 266 ft
- IATA code : NCL
- Download approach charts


EGNT - Newcastle

CURRENT METAR :
  • 250420Z 28007KT 9999 FEW010 SCT018 07/06 Q1004

EXPIRED METARs :
  • 250350Z 27008KT 9999 FEW012 SCT021 07/06 Q1004
  • 250320Z 25004KT 220V290 9999 FEW012 07/05 Q1004
  • 250250Z 27008KT 9999 FEW012 07/05 Q1004
  • 250220Z 27009KT 9999 FEW012 07/06 Q1004
  • 250150Z 28010KT 9999 SCT012 07/05 Q1004

TAF TAF EGNT
Valid from the 25 at 00:00 until the 26 at 00:00 UTC


242302Z 2500/2524 24005KT 9999 FEW020 SCT040
PROB30
TEMPO 2500/2504 7000 SHRA BKN014
BECMG 2508/2511 25015G27KT
TEMPO 2510/2522 7000 SHRA
PROB30
TEMPO 2510/2512 4000 +SHRA BKN012CB
PROB30
TEMPO 2514/2520 3000 +SHRA TSGS SCT008 BKN014CB
BECMG 2518/2521 22005KT
ATIS : +44 191 214 3400
No reported NOTAMs for that airfield.



MET'MAP, your aeronautical weather chart ! - Copyright ORBIFLY December 2007 - Disclaimer

ORBIFLY MET'MAP TEAM :

Programming & Development : Alexandra Zaïnal
Concept & Development : Baudouin d'Aumeries
Co-Development & Prog : Marc-Olivier Méhu
Technical & hardware support : Manuel Goepfert

Contact : metmap@orbifly.com




SOURCES & CREDITS :

   NOAA